ADDS METAR Data INFO
IDs: Format: Raw Decoded Include TAF

Data at: 0846 UTC 19 Nov 2017

METAR for:KCVG (Cincinnati Intl, KY, US)
Text:KCVG 190752Z 29014KT 10SM OVC043 04/02 A2985 RMK AO2 SLP107 T00390017
Temperature: 3.9°C ( 39°F)
Dewpoint: 1.7°C ( 35°F) [RH = 86%]
Pressure (altimeter):29.85 inches Hg (1010.9 mb) [Sea level pressure: 1010.7 mb]
Winds:from the WNW (290 degrees) at 16 MPH (14 knots; 7.2 m/s)
Visibility:10 or more sm (16+ km)
Ceiling:4300 feet AGL
Clouds: overcast cloud deck at 4300 feet AGL